sensor_id;sensor_type;location;lat;lon;timestamp;pressure;altitude;pressure_sealevel;temperature;humidity
68580;BME280;55555;52.136;5.424;2022-12-07T00:01:41;102047.97;;;3.11;100.00
68580;BME280;55555;52.136;5.424;2022-12-07T00:04:12;102047.94;;;3.09;100.00
68580;BME280;55555;52.136;5.424;2022-12-07T00:06:42;102046.97;;;3.06;100.00
68580;BME280;55555;52.136;5.424;2022-12-07T00:09:13;102039.06;;;3.04;100.00
68580;BME280;55555;52.136;5.424;2022-12-07T00:11:42;102046.06;;;3.02;100.00
68580;BME280;55555;52.136;5.424;2022-12-07T00:14:12;102047.78;;;3.00;100.00
68580;BME280;55555;52.136;5.424;2022-12-07T00:16:42;102045.09;;;2.97;100.00
68580;BME280;55555;52.136;5.424;2022-12-07T00:19:11;102039.81;;;2.96;99.91
68580;BME280;55555;52.136;5.424;2022-12-07T00:21:40;102043.25;;;2.90;100.00
68580;BME280;55555;52.136;5.424;2022-12-07T00:24:08;102034.44;;;2.88;100.00
68580;BME280;55555;52.136;5.424;2022-12-07T00:26:38;102040.50;;;2.84;99.73
68580;BME280;55555;52.136;5.424;2022-12-07T00:29:13;102030.81;;;2.80;100.00
68580;BME280;55555;52.136;5.424;2022-12-07T00:31:43;102027.25;;;2.78;99.98
68580;BME280;55555;52.136;5.424;2022-12-07T00:34:15;102026.34;;;2.76;100.00
68580;BME280;55555;52.136;5.424;2022-12-07T00:36:44;102024.56;;;2.75;100.00
68580;BME280;55555;52.136;5.424;2022-12-07T00:39:11;102023.69;;;2.74;100.00
68580;BME280;55555;52.136;5.424;2022-12-07T00:41:39;102020.16;;;2.74;100.00
68580;BME280;55555;52.136;5.424;2022-12-07T00:44:06;102017.53;;;2.74;100.00
68580;BME280;55555;52.136;5.424;2022-12-07T00:46:33;102015.84;;;2.76;100.00
68580;BME280;55555;52.136;5.424;2022-12-07T00:49:00;102011.47;;;2.76;100.00
68580;BME280;55555;52.136;5.424;2022-12-07T00:51:27;102008.81;;;2.75;100.00
68580;BME280;55555;52.136;5.424;2022-12-07T00:53:54;102015.81;;;2.74;100.00
68580;BME280;55555;52.136;5.424;2022-12-07T00:56:24;102014.84;;;2.71;100.00
68580;BME280;55555;52.136;5.424;2022-12-07T00:58:58;102011.34;;;2.69;100.00
68580;BME280;55555;52.136;5.424;2022-12-07T01:01:28;102013.88;;;2.64;100.00
68580;BME280;55555;52.136;5.424;2022-12-07T01:04:00;102017.28;;;2.57;99.83
68580;BME280;55555;52.136;5.424;2022-12-07T01:06:28;102012.84;;;2.54;100.00
68580;BME280;55555;52.136;5.424;2022-12-07T01:08:56;102008.41;;;2.52;100.00
68580;BME280;55555;52.136;5.424;2022-12-07T01:11:25;102006.59;;;2.49;100.00
68580;BME280;55555;52.136;5.424;2022-12-07T01:13:55;102012.75;;;2.50;99.99
68580;BME280;55555;52.136;5.424;2022-12-07T01:16:25;102011.84;;;2.49;100.00
68580;BME280;55555;52.136;5.424;2022-12-07T01:18:56;102010.16;;;2.51;100.00
68580;BME280;55555;52.136;5.424;2022-12-07T01:21:29;102004.03;;;2.52;100.00
68580;BME280;55555;52.136;5.424;2022-12-07T01:24:06;102009.28;;;2.52;100.00
68580;BME280;55555;52.136;5.424;2022-12-07T01:26:35;102011.06;;;2.53;100.00
68580;BME280;55555;52.136;5.424;2022-12-07T01:29:02;102016.25;;;2.50;100.00
68580;BME280;55555;52.136;5.424;2022-12-07T01:31:30;102016.34;;;2.55;100.00
68580;BME280;55555;52.136;5.424;2022-12-07T01:33:59;102017.25;;;2.55;100.00
68580;BME280;55555;52.136;5.424;2022-12-07T01:36:32;102018.88;;;2.50;100.00
68580;BME280;55555;52.136;5.424;2022-12-07T01:39:03;102010.13;;;2.50;100.00
68580;BME280;55555;52.136;5.424;2022-12-07T01:41:36;102019.75;;;2.48;100.00
68580;BME280;55555;52.136;5.424;2022-12-07T01:52:15;102020.41;;;2.36;100.00
68580;BME280;55555;52.136;5.424;2022-12-07T01:54:47;102015.13;;;2.35;100.00
68580;BME280;55555;52.136;5.424;2022-12-07T01:57:16;102019.44;;;2.33;100.00
68580;BME280;55555;52.136;5.424;2022-12-07T01:59:45;102016.72;;;2.28;100.00
68580;BME280;55555;52.136;5.424;2022-12-07T02:02:20;102015.84;;;2.26;100.00
68580;BME280;55555;52.136;5.424;2022-12-07T02:04:52;102020.16;;;2.24;100.00
68580;BME280;55555;52.136;5.424;2022-12-07T02:07:20;102021.00;;;2.23;100.00
68580;BME280;55555;52.136;5.424;2022-12-07T02:09:48;102017.56;;;2.26;100.00
68580;BME280;55555;52.136;5.424;2022-12-07T02:12:15;102014.91;;;2.24;100.00
68580;BME280;55555;52.136;5.424;2022-12-07T02:14:43;102014.88;;;2.23;100.00
68580;BME280;55555;52.136;5.424;2022-12-07T02:17:19;102008.81;;;2.25;100.00
68580;BME280;55555;52.136;5.424;2022-12-07T02:20:09;102010.59;;;2.28;99.95
68580;BME280;55555;52.136;5.424;2022-12-07T02:26:37;102007.09;;;2.27;100.00
68580;BME280;55555;52.136;5.424;2022-12-07T02:29:35;102008.91;;;2.31;100.00
68580;BME280;55555;52.136;5.424;2022-12-07T02:32:18;102007.19;;;2.33;100.00
68580;BME280;55555;52.136;5.424;2022-12-07T02:34:56;102008.16;;;2.38;100.00
68580;BME280;55555;52.136;5.424;2022-12-07T02:38:16;102008.19;;;2.40;100.00
68580;BME280;55555;52.136;5.424;2022-12-07T02:43:46;102000.44;;;2.46;100.00
68580;BME280;55555;52.136;5.424;2022-12-07T02:46:25;101989.97;;;2.47;100.00
68580;BME280;55555;52.136;5.424;2022-12-07T02:48:58;101993.47;;;2.49;100.00
68580;BME280;55555;52.136;5.424;2022-12-07T02:51:46;101994.44;;;2.54;100.00
68580;BME280;55555;52.136;5.424;2022-12-07T02:54:15;101998.88;;;2.57;100.00
68580;BME280;55555;52.136;5.424;2022-12-07T03:11:09;102004.44;;;2.75;100.00
68580;BME280;55555;52.136;5.424;2022-12-07T03:14:10;101996.63;;;2.78;100.00
68580;BME280;55555;52.136;5.424;2022-12-07T03:16:44;101997.53;;;2.82;100.00
68580;BME280;55555;52.136;5.424;2022-12-07T03:19:36;101994.97;;;2.85;100.00
68580;BME280;55555;52.136;5.424;2022-12-07T03:22:07;101990.66;;;2.88;100.00
68580;BME280;55555;52.136;5.424;2022-12-07T03:24:55;101988.88;;;2.87;100.00
68580;BME280;55555;52.136;5.424;2022-12-07T03:27:28;101996.78;;;2.89;100.00
68580;BME280;55555;52.136;5.424;2022-12-07T03:30:05;101986.28;;;2.89;100.00
68580;BME280;55555;52.136;5.424;2022-12-07T03:35:42;101986.22;;;2.86;100.00
68580;BME280;55555;52.136;5.424;2022-12-07T03:38:38;101988.00;;;2.87;100.00
68580;BME280;55555;52.136;5.424;2022-12-07T03:41:13;101991.44;;;2.84;100.00
68580;BME280;55555;52.136;5.424;2022-12-07T03:43:50;101983.50;;;2.80;100.00
68580;BME280;55555;52.136;5.424;2022-12-07T03:46:23;101985.25;;;2.79;100.00
68580;BME280;55555;52.136;5.424;2022-12-07T03:49:21;101984.31;;;2.76;100.00
68580;BME280;55555;52.136;5.424;2022-12-07T03:54:36;101983.34;;;2.69;100.00
68580;BME280;55555;52.136;5.424;2022-12-07T03:57:09;101979.81;;;2.69;100.00
68580;BME280;55555;52.136;5.424;2022-12-07T03:59:38;101988.59;;;2.69;100.00
68580;BME280;55555;52.136;5.424;2022-12-07T04:02:07;101988.59;;;2.71;100.00
68580;BME280;55555;52.136;5.424;2022-12-07T04:04:35;101984.22;;;2.70;100.00
68580;BME280;55555;52.136;5.424;2022-12-07T04:07:02;101977.13;;;2.66;100.00
68580;BME280;55555;52.136;5.424;2022-12-07T04:09:29;101975.31;;;2.62;100.00
68580;BME280;55555;52.136;5.424;2022-12-07T04:11:56;101978.84;;;2.64;100.00
68580;BME280;55555;52.136;5.424;2022-12-07T04:14:23;101974.47;;;2.64;100.00
68580;BME280;55555;52.136;5.424;2022-12-07T04:16:53;101969.25;;;2.66;100.00
68580;BME280;55555;52.136;5.424;2022-12-07T04:19:26;101973.69;;;2.68;100.00
68580;BME280;55555;52.136;5.424;2022-12-07T04:21:59;101970.19;;;2.69;100.00
68580;BME280;55555;52.136;5.424;2022-12-07T04:24:27;101956.19;;;2.72;100.00
68580;BME280;55555;52.136;5.424;2022-12-07T04:26:55;101964.09;;;2.73;100.00
68580;BME280;55555;52.136;5.424;2022-12-07T04:29:22;101965.88;;;2.74;100.00
68580;BME280;55555;52.136;5.424;2022-12-07T04:31:50;101963.28;;;2.76;100.00
68580;BME280;55555;52.136;5.424;2022-12-07T04:34:18;101973.78;;;2.76;100.00
68580;BME280;55555;52.136;5.424;2022-12-07T04:36:46;101973.72;;;2.73;100.00
68580;BME280;55555;52.136;5.424;2022-12-07T04:39:23;101971.97;;;2.72;100.00
68580;BME280;55555;52.136;5.424;2022-12-07T04:41:52;101970.19;;;2.69;100.00
68580;BME280;55555;52.136;5.424;2022-12-07T04:44:20;101971.06;;;2.68;100.00
68580;BME280;55555;52.136;5.424;2022-12-07T04:46:48;101970.16;;;2.68;100.00
68580;BME280;55555;52.136;5.424;2022-12-07T04:49:16;101968.38;;;2.65;100.00
68580;BME280;55555;52.136;5.424;2022-12-07T04:51:45;101968.41;;;2.67;100.00
68580;BME280;55555;52.136;5.424;2022-12-07T04:54:13;101968.44;;;2.71;100.00
68580;BME280;55555;52.136;5.424;2022-12-07T04:56:41;101965.88;;;2.74;100.00
68580;BME280;55555;52.136;5.424;2022-12-07T04:59:10;101964.16;;;2.76;100.00
68580;BME280;55555;52.136;5.424;2022-12-07T05:01:38;101958.94;;;2.78;100.00
68580;BME280;55555;52.136;5.424;2022-12-07T05:04:06;101962.47;;;2.78;100.00
68580;BME280;55555;52.136;5.424;2022-12-07T05:06:34;101956.34;;;2.79;100.00
68580;BME280;55555;52.136;5.424;2022-12-07T05:09:03;101963.28;;;2.76;100.00
68580;BME280;55555;52.136;5.424;2022-12-07T05:11:30;101956.22;;;2.73;100.00
68580;BME280;55555;52.136;5.424;2022-12-07T05:14:16;101949.16;;;2.71;100.00
68580;BME280;55555;52.136;5.424;2022-12-07T05:16:48;101950.78;;;2.60;100.00
68580;BME280;55555;52.136;5.424;2022-12-07T05:19:17;101951.63;;;2.60;100.00
68580;BME280;55555;52.136;5.424;2022-12-07T05:21:45;101952.44;;;2.54;100.00
68580;BME280;55555;52.136;5.424;2022-12-07T05:24:14;101944.44;;;2.50;100.00
68580;BME280;55555;52.136;5.424;2022-12-07T05:26:42;101947.94;;;2.47;100.00
68580;BME280;55555;52.136;5.424;2022-12-07T05:29:14;101946.13;;;2.45;100.00
68580;BME280;55555;52.136;5.424;2022-12-07T05:31:43;101948.69;;;2.40;100.00
68580;BME280;55555;52.136;5.424;2022-12-07T05:34:10;101951.22;;;2.34;100.00
68580;BME280;55555;52.136;5.424;2022-12-07T05:36:38;101952.00;;;2.30;100.00
68580;BME280;55555;52.136;5.424;2022-12-07T05:39:05;101944.06;;;2.26;100.00
68580;BME280;55555;52.136;5.424;2022-12-07T05:41:33;101945.75;;;2.22;100.00
68580;BME280;55555;52.136;5.424;2022-12-07T05:44:19;101957.09;;;2.21;100.00
68580;BME280;55555;52.136;5.424;2022-12-07T05:46:46;101943.84;;;2.13;100.00
68580;BME280;55555;52.136;5.424;2022-12-07T05:49:13;101953.47;;;2.14;100.00
68580;BME280;55555;52.136;5.424;2022-12-07T05:51:40;101958.66;;;2.11;100.00
68580;BME280;55555;52.136;5.424;2022-12-07T05:54:07;101951.69;;;2.12;100.00
68580;BME280;55555;52.136;5.424;2022-12-07T05:56:35;101949.88;;;2.09;100.00
68580;BME280;55555;52.136;5.424;2022-12-07T05:59:02;101951.63;;;2.09;100.00
68580;BME280;55555;52.136;5.424;2022-12-07T06:01:51;101957.69;;;2.06;100.00
68580;BME280;55555;52.136;5.424;2022-12-07T06:04:24;101955.94;;;2.07;100.00
68580;BME280;55555;52.136;5.424;2022-12-07T06:06:53;101952.41;;;2.03;100.00
68580;BME280;55555;52.136;5.424;2022-12-07T06:09:22;101958.53;;;2.04;100.00
68580;BME280;55555;52.136;5.424;2022-12-07T06:11:51;101950.69;;;2.05;100.00
68580;BME280;55555;52.136;5.424;2022-12-07T06:14:37;101954.19;;;2.04;100.00
68580;BME280;55555;52.136;5.424;2022-12-07T06:17:05;101954.06;;;2.00;100.00
68580;BME280;55555;52.136;5.424;2022-12-07T06:19:32;101956.69;;;2.00;100.00
68580;BME280;55555;52.136;5.424;2022-12-07T06:22:00;101961.03;;;1.98;100.00
68580;BME280;55555;52.136;5.424;2022-12-07T06:24:27;101961.03;;;1.98;100.00
68580;BME280;55555;52.136;5.424;2022-12-07T06:26:54;101967.19;;;2.00;100.00
68580;BME280;55555;52.136;5.424;2022-12-07T06:29:21;101961.94;;;2.00;100.00
68580;BME280;55555;52.136;5.424;2022-12-07T06:31:48;101957.63;;;2.02;100.00
68580;BME280;55555;52.136;5.424;2022-12-07T06:34:18;101960.31;;;2.05;100.00
68580;BME280;55555;52.136;5.424;2022-12-07T06:36:46;101958.56;;;2.07;100.00
68580;BME280;55555;52.136;5.424;2022-12-07T06:39:18;101959.50;;;2.09;100.00
68580;BME280;55555;52.136;5.424;2022-12-07T06:41:47;101963.00;;;2.09;100.00
68580;BME280;55555;52.136;5.424;2022-12-07T06:44:14;101962.13;;;2.09;100.00
68580;BME280;55555;52.136;5.424;2022-12-07T06:46:41;101964.75;;;2.09;100.00
68580;BME280;55555;52.136;5.424;2022-12-07T06:49:08;101965.66;;;2.11;100.00
68580;BME280;55555;52.136;5.424;2022-12-07T06:51:35;101962.19;;;2.12;100.00
68580;BME280;55555;52.136;5.424;2022-12-07T06:54:08;101962.19;;;2.12;100.00
68580;BME280;55555;52.136;5.424;2022-12-07T06:56:36;101965.66;;;2.11;100.00
68580;BME280;55555;52.136;5.424;2022-12-07T06:59:04;101961.19;;;2.05;100.00
68580;BME280;55555;52.136;5.424;2022-12-07T07:01:34;101964.66;;;2.04;100.00
68580;BME280;55555;52.136;5.424;2022-12-07T07:04:02;101961.94;;;2.00;100.00
68580;BME280;55555;52.136;5.424;2022-12-07T07:06:29;101958.41;;;1.98;100.00
68580;BME280;55555;52.136;5.424;2022-12-07T07:08:56;101957.44;;;1.93;100.00
68580;BME280;55555;52.136;5.424;2022-12-07T07:11:23;101962.69;;;1.93;100.00
68580;BME280;55555;52.136;5.424;2022-12-07T07:13:50;101962.53;;;1.85;100.00
68580;BME280;55555;52.136;5.424;2022-12-07T07:16:17;101963.38;;;1.84;100.00
68580;BME280;55555;52.136;5.424;2022-12-07T07:18:44;101965.97;;;1.81;100.00
68580;BME280;55555;52.136;5.424;2022-12-07T07:21:11;101974.72;;;1.81;100.00
68580;BME280;55555;52.136;5.424;2022-12-07T07:23:39;101967.66;;;1.79;100.00
68580;BME280;55555;52.136;5.424;2022-12-07T07:26:06;101971.19;;;1.79;100.00
68580;BME280;55555;52.136;5.424;2022-12-07T07:28:33;101967.63;;;1.77;100.00
68580;BME280;55555;52.136;5.424;2022-12-07T07:31:02;101964.09;;;1.75;100.00
68580;BME280;55555;52.136;5.424;2022-12-07T07:33:29;101969.38;;;1.77;100.00
68580;BME280;55555;52.136;5.424;2022-12-07T07:35:56;101960.53;;;1.72;100.00
68580;BME280;55555;52.136;5.424;2022-12-07T07:38:23;101961.38;;;1.71;100.00
68580;BME280;55555;52.136;5.424;2022-12-07T07:40:50;101958.69;;;1.68;100.00
68580;BME280;55555;52.136;5.424;2022-12-07T07:43:17;101966.53;;;1.66;100.00
68580;BME280;55555;52.136;5.424;2022-12-07T07:45:44;101968.22;;;1.64;100.00
68580;BME280;55555;52.136;5.424;2022-12-07T07:48:11;101967.34;;;1.62;100.00
68580;BME280;55555;52.136;5.424;2022-12-07T07:50:38;101963.75;;;1.59;100.00
68580;BME280;55555;52.136;5.424;2022-12-07T07:53:06;101960.22;;;1.57;100.00
68580;BME280;55555;52.136;5.424;2022-12-07T07:55:33;101966.31;;;1.56;100.00
68580;BME280;55555;52.136;5.424;2022-12-07T07:58:00;101967.16;;;1.55;100.00
68580;BME280;55555;52.136;5.424;2022-12-07T08:00:27;101970.66;;;1.55;100.00
68580;BME280;55555;52.136;5.424;2022-12-07T08:02:54;101962.81;;;1.55;100.00
68580;BME280;55555;52.136;5.424;2022-12-07T08:05:21;101969.81;;;1.56;100.00
68580;BME280;55555;52.136;5.424;2022-12-07T08:07:48;101977.72;;;1.58;100.00
68580;BME280;55555;52.136;5.424;2022-12-07T08:10:16;101973.44;;;1.61;100.00
68580;BME280;55555;52.136;5.424;2022-12-07T08:12:43;101975.22;;;1.62;100.00
68580;BME280;55555;52.136;5.424;2022-12-07T08:15:30;101983.09;;;1.62;100.00
68580;BME280;55555;52.136;5.424;2022-12-07T08:17:58;101974.31;;;1.63;100.00
68580;BME280;55555;52.136;5.424;2022-12-07T08:20:25;101981.34;;;1.64;100.00
68580;BME280;55555;52.136;5.424;2022-12-07T08:22:53;101988.44;;;1.68;100.00
68580;BME280;55555;52.136;5.424;2022-12-07T08:25:20;101989.44;;;1.75;100.00
68580;BME280;55555;52.136;5.424;2022-12-07T08:27:49;101990.44;;;1.80;100.00
68580;BME280;55555;52.136;5.424;2022-12-07T08:30:17;101986.34;;;1.94;100.00
68580;BME280;55555;52.136;5.424;2022-12-07T08:32:46;101983.03;;;2.04;100.00
68580;BME280;55555;52.136;5.424;2022-12-07T08:35:14;101971.09;;;2.22;100.00
68580;BME280;55555;52.136;5.424;2022-12-07T08:37:42;101972.94;;;2.26;100.00
68580;BME280;55555;52.136;5.424;2022-12-07T08:40:10;101980.09;;;2.34;100.00
68580;BME280;55555;52.136;5.424;2022-12-07T08:42:49;101977.63;;;2.43;100.00
68580;BME280;55555;52.136;5.424;2022-12-07T08:45:17;101983.00;;;2.51;100.00
68580;BME280;55555;52.136;5.424;2022-12-07T08:47:57;101980.53;;;2.60;100.00
68580;BME280;55555;52.136;5.424;2022-12-07T08:50:28;101982.41;;;2.67;100.00
68580;BME280;55555;52.136;5.424;2022-12-07T08:52:57;101986.91;;;2.74;100.00
68580;BME280;55555;52.136;5.424;2022-12-07T08:55:26;101975.66;;;2.83;100.00
68580;BME280;55555;52.136;5.424;2022-12-07T08:57:54;101976.66;;;2.89;100.00
68580;BME280;55555;52.136;5.424;2022-12-07T09:00:23;101977.59;;;2.96;100.00
68580;BME280;55555;52.136;5.424;2022-12-07T09:02:50;101974.22;;;3.02;100.00
68580;BME280;55555;52.136;5.424;2022-12-07T09:05:17;101978.69;;;3.09;100.00
68580;BME280;55555;52.136;5.424;2022-12-07T09:07:47;101976.13;;;3.13;100.00
68580;BME280;55555;52.136;5.424;2022-12-07T09:10:17;101977.00;;;3.15;100.00
68580;BME280;55555;52.136;5.424;2022-12-07T09:12:44;101980.56;;;3.17;100.00
68580;BME280;55555;52.136;5.424;2022-12-07T09:15:11;101977.09;;;3.20;100.00
68580;BME280;55555;52.136;5.424;2022-12-07T09:17:38;101973.63;;;3.22;100.00
68580;BME280;55555;52.136;5.424;2022-12-07T09:20:06;101973.72;;;3.28;100.00
68580;BME280;55555;52.136;5.424;2022-12-07T09:22:33;101971.19;;;3.38;100.00
68580;BME280;55555;52.136;5.424;2022-12-07T09:25:01;101977.47;;;3.46;100.00
68580;BME280;55555;52.136;5.424;2022-12-07T09:27:29;101985.63;;;3.65;100.00
68580;BME280;55555;52.136;5.424;2022-12-07T09:29:56;101977.91;;;3.82;100.00
68580;BME280;55555;52.136;5.424;2022-12-07T09:32:24;101985.91;;;3.91;100.00
68580;BME280;55555;52.136;5.424;2022-12-07T09:34:51;101985.13;;;3.98;100.00
68580;BME280;55555;52.136;5.424;2022-12-07T09:37:18;101972.88;;;4.03;100.00
68580;BME280;55555;52.136;5.424;2022-12-07T09:39:45;101980.88;;;4.10;100.00
68580;BME280;55555;52.136;5.424;2022-12-07T09:44:55;101973.88;;;4.15;100.00
68580;BME280;55555;52.136;5.424;2022-12-07T09:47:22;101973.94;;;4.19;100.00
68580;BME280;55555;52.136;5.424;2022-12-07T09:49:50;101966.16;;;4.30;100.00
68580;BME280;55555;52.136;5.424;2022-12-07T09:52:21;101967.97;;;4.38;100.00
68580;BME280;55555;52.136;5.424;2022-12-07T09:54:53;101971.59;;;4.50;100.00
68580;BME280;55555;52.136;5.424;2022-12-07T09:57:27;101972.56;;;4.59;100.00
68580;BME280;55555;52.136;5.424;2022-12-07T10:00:00;101960.31;;;4.66;100.00
68580;BME280;55555;52.136;5.424;2022-12-07T10:02:41;101962.97;;;4.67;100.00
68580;BME280;55555;52.136;5.424;2022-12-07T10:05:16;101955.97;;;4.71;100.00
68580;BME280;55555;52.136;5.424;2022-12-07T10:07:50;101955.09;;;4.70;100.00
68580;BME280;55555;52.136;5.424;2022-12-07T10:10:26;101963.91;;;4.72;100.00
68580;BME280;55555;52.136;5.424;2022-12-07T10:13:08;101952.47;;;4.72;100.00
68580;BME280;55555;52.136;5.424;2022-12-07T10:18:41;101947.41;;;5.02;100.00
68580;BME280;55555;52.136;5.424;2022-12-07T10:24:04;101936.41;;;5.89;100.00
68580;BME280;55555;52.136;5.424;2022-12-07T10:29:28;101933.84;;;6.49;100.00
68580;BME280;55555;52.136;5.424;2022-12-07T10:34:35;101923.25;;;6.14;100.00
68580;BME280;55555;52.136;5.424;2022-12-07T10:42:30;101925.91;;;6.33;100.00
68580;BME280;55555;52.136;5.424;2022-12-07T10:45:14;101917.97;;;6.92;100.00
68580;BME280;55555;52.136;5.424;2022-12-07T10:53:47;101901.44;;;8.30;100.00
68580;BME280;55555;52.136;5.424;2022-12-07T10:57:05;101896.16;;;8.24;100.00
68580;BME280;55555;52.136;5.424;2022-12-07T11:00:03;101905.31;;;7.78;100.00
68580;BME280;55555;52.136;5.424;2022-12-07T11:17:13;101887.84;;;7.34;96.08
68580;BME280;55555;52.136;5.424;2022-12-07T11:19:53;101888.69;;;7.42;98.87
68580;BME280;55555;52.136;5.424;2022-12-07T11:25:26;101893.22;;;7.04;97.63
68580;BME280;55555;52.136;5.424;2022-12-07T11:28:53;101889.78;;;6.60;95.86
68580;BME280;55555;52.136;5.424;2022-12-07T11:34:39;101888.91;;;6.23;95.59
68580;BME280;55555;52.136;5.424;2022-12-07T11:37:34;101887.16;;;6.04;95.83
68580;BME280;55555;52.136;5.424;2022-12-07T11:40:15;101878.31;;;5.99;95.97
68580;BME280;55555;52.136;5.424;2022-12-07T11:42:59;101876.56;;;6.01;96.00
68580;BME280;55555;52.136;5.424;2022-12-07T11:45:32;101868.63;;;6.06;96.55
68580;BME280;55555;52.136;5.424;2022-12-07T11:48:18;101872.16;;;5.94;95.24
68580;BME280;55555;52.136;5.424;2022-12-07T11:50:54;101860.69;;;5.97;95.43
68580;BME280;55555;52.136;5.424;2022-12-07T11:53:32;101862.50;;;6.05;97.59
68580;BME280;55555;52.136;5.424;2022-12-07T11:56:12;101859.81;;;5.96;96.40
68580;BME280;55555;52.136;5.424;2022-12-07T11:59:16;101865.09;;;6.07;96.51
68580;BME280;55555;52.136;5.424;2022-12-07T12:01:58;101859.84;;;6.02;96.09
68580;BME280;55555;52.136;5.424;2022-12-07T12:04:32;101853.66;;;6.09;97.61
68580;BME280;55555;52.136;5.424;2022-12-07T12:07:07;101846.66;;;6.14;97.82
68580;BME280;55555;52.136;5.424;2022-12-07T12:10:05;101849.25;;;6.07;97.25
68580;BME280;55555;52.136;5.424;2022-12-07T12:13:13;101843.97;;;6.10;96.60
68580;BME280;55555;52.136;5.424;2022-12-07T12:19:32;101837.81;;;6.06;96.15
68580;BME280;55555;52.136;5.424;2022-12-07T12:22:20;101835.16;;;6.06;97.43
68580;BME280;55555;52.136;5.424;2022-12-07T12:24:52;101838.69;;;6.11;97.44
68580;BME280;55555;52.136;5.424;2022-12-07T12:27:35;101831.66;;;6.13;97.95
68580;BME280;55555;52.136;5.424;2022-12-07T12:30:06;101836.94;;;6.21;98.80
68580;BME280;55555;52.136;5.424;2022-12-07T12:32:51;101824.63;;;6.25;97.00
68580;BME280;55555;52.136;5.424;2022-12-07T12:35:31;101824.63;;;6.25;95.62
68580;BME280;55555;52.136;5.424;2022-12-07T12:38:47;101822.84;;;6.33;97.12
68580;BME280;55555;52.136;5.424;2022-12-07T12:51:55;101803.44;;;6.59;96.25
68580;BME280;55555;52.136;5.424;2022-12-07T12:54:29;101802.53;;;6.65;96.46
68580;BME280;55555;52.136;5.424;2022-12-07T12:57:09;101806.94;;;6.66;96.66
68580;BME280;55555;52.136;5.424;2022-12-07T13:05:27;101818.44;;;6.44;95.78
68580;BME280;55555;52.136;5.424;2022-12-07T13:10:48;101792.03;;;6.04;95.66
68580;BME280;55555;52.136;5.424;2022-12-07T13:29:12;101785.81;;;5.60;95.96
68580;BME280;55555;52.136;5.424;2022-12-07T13:34:40;101773.44;;;5.43;95.56
68580;BME280;55555;52.136;5.424;2022-12-07T13:37:38;101765.53;;;5.37;95.08
68580;BME280;55555;52.136;5.424;2022-12-07T13:40:21;101772.53;;;5.32;95.36
68580;BME280;55555;52.136;5.424;2022-12-07T13:43:12;101768.16;;;5.28;95.21
68580;BME280;55555;52.136;5.424;2022-12-07T13:45:41;101762.88;;;5.27;95.69
68580;BME280;55555;52.136;5.424;2022-12-07T13:48:24;101756.69;;;5.22;95.81
68580;BME280;55555;52.136;5.424;2022-12-07T13:51:03;101761.97;;;5.25;96.37
68580;BME280;55555;52.136;5.424;2022-12-07T13:53:31;101753.19;;;5.24;97.01
68580;BME280;55555;52.136;5.424;2022-12-07T13:55:59;101752.28;;;5.22;95.97
68580;BME280;55555;52.136;5.424;2022-12-07T13:58:30;101747.91;;;5.24;97.21
68580;BME280;55555;52.136;5.424;2022-12-07T14:00:58;101754.09;;;5.29;97.09
68580;BME280;55555;52.136;5.424;2022-12-07T14:03:34;101752.31;;;5.31;96.57
68580;BME280;55555;52.136;5.424;2022-12-07T14:06:26;101747.91;;;5.30;96.58
68580;BME280;55555;52.136;5.424;2022-12-07T14:09:17;101753.19;;;5.32;96.80
68580;BME280;55555;52.136;5.424;2022-12-07T14:11:50;101740.88;;;5.32;96.93
68580;BME280;55555;52.136;5.424;2022-12-07T14:14:28;101748.78;;;5.31;97.41
68580;BME280;55555;52.136;5.424;2022-12-07T14:17:15;101743.53;;;5.34;97.80
68580;BME280;55555;52.136;5.424;2022-12-07T14:19:56;101740.03;;;5.38;96.98
68580;BME280;55555;52.136;5.424;2022-12-07T14:25:24;101724.19;;;5.42;97.38
68580;BME280;55555;52.136;5.424;2022-12-07T14:28:00;101729.47;;;5.44;97.01
68580;BME280;55555;52.136;5.424;2022-12-07T14:30:32;101724.19;;;5.45;98.09
68580;BME280;55555;52.136;5.424;2022-12-07T14:33:02;101725.97;;;5.45;96.85
68580;BME280;55555;52.136;5.424;2022-12-07T14:35:32;101727.72;;;5.44;97.09
68580;BME280;55555;52.136;5.424;2022-12-07T14:37:59;101717.16;;;5.46;97.92
68580;BME280;55555;52.136;5.424;2022-12-07T14:40:28;101725.94;;;5.42;97.37
68580;BME280;55555;52.136;5.424;2022-12-07T14:43:09;101718.03;;;5.37;96.73
68580;BME280;55555;52.136;5.424;2022-12-07T14:45:38;101712.78;;;5.40;98.50
68580;BME280;55555;52.136;5.424;2022-12-07T14:48:13;101703.97;;;5.40;98.97
68580;BME280;55555;52.136;5.424;2022-12-07T14:51:01;101710.09;;;5.31;97.93
68580;BME280;55555;52.136;5.424;2022-12-07T14:53:50;101717.16;;;5.29;97.76
68580;BME280;55555;52.136;5.424;2022-12-07T14:56:23;101711.84;;;5.23;96.85
68580;BME280;55555;52.136;5.424;2022-12-07T14:58:51;101711.88;;;5.26;97.26
68580;BME280;55555;52.136;5.424;2022-12-07T15:01:18;101713.59;;;5.23;97.53
68580;BME280;55555;52.136;5.424;2022-12-07T15:03:45;101718.00;;;5.24;98.18
68580;BME280;55555;52.136;5.424;2022-12-07T15:06:14;101707.44;;;5.22;97.84
68580;BME280;55555;52.136;5.424;2022-12-07T15:08:42;101703.94;;;5.22;97.79
68580;BME280;55555;52.136;5.424;2022-12-07T15:11:17;101715.34;;;5.21;97.79
68580;BME280;55555;52.136;5.424;2022-12-07T15:13:44;101723.28;;;5.19;98.47
68580;BME280;55555;52.136;5.424;2022-12-07T15:16:30;101727.69;;;5.19;98.18
68580;BME280;55555;52.136;5.424;2022-12-07T15:19:19;101721.53;;;5.18;98.28
68580;BME280;55555;52.136;5.424;2022-12-07T15:21:55;101727.69;;;5.17;98.63
68580;BME280;55555;52.136;5.424;2022-12-07T15:24:23;101710.97;;;5.07;98.95
68580;BME280;55555;52.136;5.424;2022-12-07T15:26:50;101705.69;;;5.07;98.09
68580;BME280;55555;52.136;5.424;2022-12-07T15:29:18;101706.53;;;4.97;98.08